Time;durP1;ratioP1;P1;durP2;ratioP2;P2;SDS_P1;SDS_P2;PMS_P1;PMS_P2;Temp;Humidity;BMP_temperature;BMP_pressure;BME280_temperature;BME280_humidity;BME280_pressure;Samples;Min_cycle;Max_cycle;Signal;HPM_P1;HPM_P2
2022/06/30 00:01:14;;;;;;;;;;;;;;;;;;5011376;28;20291;-85
2022/06/30 00:03:40;;;;;;;;;;;;;;;;;;5011363;28;19942;-85
2022/06/30 00:06:05;;;;;;;;;;;;;;;;;;5005913;28;20290;-84
2022/06/30 00:08:30;;;;;;;;;;;;;;;;;;5008938;28;20715;-86
2022/06/30 00:10:55;;;;;;;;;;;;;;;;;;5013081;28;19917;-85
2022/06/30 00:13:20;;;;;;;;;;;;;;;;;;5008981;28;19952;-86
2022/06/30 00:15:46;;;;;;;;;;;;;;;;;;5004683;28;19977;-85
2022/06/30 00:18:11;;;;;;;;;;;;;;;;;;5009622;28;19920;-85
2022/06/30 00:20:36;;;;;;;;;;;;;;;;;;5004959;28;19914;-85
2022/06/30 00:23:01;;;;;;;;;;;;;;;;;;5005425;28;19920;-86
2022/06/30 00:25:26;;;;;;;;;;;;;;;;;;5008542;28;19913;-84
2022/06/30 00:27:52;;;;;;;;;;;;;;;;;;5009835;28;19914;-85
2022/06/30 00:30:17;;;;;;;;;;;;;;;;;;5006883;28;19918;-84
2022/06/30 00:32:42;;;;;;;;;;;;;;;;;;5012558;28;19914;-85
2022/06/30 00:35:07;;;;;;;;;;;;;;;;;;5006771;28;20298;-85
2022/06/30 00:37:32;;;;;;;;;;;;;;;;;;5005925;28;19914;-85
2022/06/30 00:39:58;;;;;;;;;;;;;;;;;;5003181;28;19960;-86
2022/06/30 00:42:23;;;;;;;;;;;;;;;;;;5006537;28;20315;-85
2022/06/30 00:44:48;;;;;;;;;;;;;;;;;;5007408;28;19914;-85
2022/06/30 00:47:13;;;;;;;;;;;;;;;;;;5005805;28;20521;-85
2022/06/30 00:49:41;;;;;;;;;;;;;;;;;;5004697;28;20375;-86
2022/06/30 00:52:06;;;;;;;;;;;;;;;;;;5005899;28;19951;-85
2022/06/30 00:54:31;;;;;;;;;;;;;;;;;;5006026;28;19914;-85
2022/06/30 00:56:57;;;;;;;;;;;;;;;;;;5003230;28;20348;-85
2022/06/30 00:59:22;;;;;;;;;;;;;;;;;;5007172;28;20490;-85
2022/06/30 01:01:47;;;;;;;;;;;;;;;;;;5004887;28;19914;-85
2022/06/30 01:04:12;;;;;;;;;;;;;;;;;;5008606;28;20498;-85
2022/06/30 01:06:37;;;;;;;;;;;;;;;;;;5007639;28;20394;-85
2022/06/30 01:09:03;;;;;;;;;;;;;;;;;;5015200;28;19981;-85
2022/06/30 01:14:11;;;;;;;;;;;;;;;;;;5008878;28;20394;-85
2022/06/30 01:16:37;;;;;;;;;;;;;;;;;;5005221;28;19914;-85
2022/06/30 01:19:02;;;;;;;;;;;;;;;;;;5016041;28;19916;-85
2022/06/30 01:21:27;;;;;;;;;;;;;;;;;;5005484;28;20272;-86
2022/06/30 01:23:52;;;;;;;;;;;;;;;;;;5014630;28;20000;-85
2022/06/30 01:26:17;;;;;;;;;;;;;;;;;;5008470;28;19960;-85
2022/06/30 01:28:43;;;;;;;;;;;;;;;;;;5004554;28;19924;-85
2022/06/30 01:31:08;;;;;;;;;;;;;;;;;;5006148;28;20280;-85
2022/06/30 01:33:33;;;;;;;;;;;;;;;;;;5008916;28;19914;-84
2022/06/30 01:35:58;;;;;;;;;;;;;;;;;;5011162;28;19910;-84
2022/06/30 01:38:23;;;;;;;;;;;;;;;;;;5013443;28;20294;-85
2022/06/30 01:40:51;;;;;;;;;;;;;;;;;;5010097;28;19913;-86
2022/06/30 01:43:16;;;;;;;;;;;;;;;;;;5003625;28;19918;-84
2022/06/30 01:45:41;;;;;;;;;;;;;;;;;;5006545;28;21323;-87
2022/06/30 01:48:06;;;;;;;;;;;;;;;;;;5006593;28;19921;-85
2022/06/30 01:50:32;;;;;;;;;;;;;;;;;;5010135;28;19917;-85
2022/06/30 01:52:57;;;;;;;;;;;;;;;;;;5000462;28;19920;-87
2022/06/30 01:55:22;;;;;;;;;;;;;;;;;;5011203;28;20000;-84
2022/06/30 01:57:47;;;;;;;;;;;;;;;;;;5008175;28;19959;-88
2022/06/30 02:00:13;;;;;;;;;;;;;;;;;;5005629;28;20552;-85
2022/06/30 02:02:38;;;;;;;;;;;;;;;;;;5004103;28;19914;-84
2022/06/30 02:05:03;;;;;;;;;;;;;;;;;;5008169;28;19936;-85
2022/06/30 02:07:28;;;;;;;;;;;;;;;;;;5005243;28;20044;-84
2022/06/30 02:09:53;;;;;;;;;;;;;;;;;;5009782;28;19918;-87
2022/06/30 02:15:02;;;;;;;;;;;;;;;;;;5008717;28;20004;-84
2022/06/30 02:17:28;;;;;;;;;;;;;;;;;;5006249;28;19949;-85
2022/06/30 02:19:53;;;;;;;;;;;;;;;;;;5001096;28;19914;-88
2022/06/30 02:22:18;;;;;;;;;;;;;;;;;;5010930;28;19921;-85
2022/06/30 02:24:43;;;;;;;;;;;;;;;;;;5011826;28;20326;-86
2022/06/30 02:27:08;;;;;;;;;;;;;;;;;;5003289;28;19917;-85
2022/06/30 02:29:34;;;;;;;;;;;;;;;;;;5007283;28;19924;-85
2022/06/30 02:31:59;;;;;;;;;;;;;;;;;;5009728;28;19949;-85
2022/06/30 02:34:24;;;;;;;;;;;;;;;;;;5007923;28;19945;-84
2022/06/30 02:36:49;;;;;;;;;;;;;;;;;;5009103;28;19917;-85
2022/06/30 02:39:14;;;;;;;;;;;;;;;;;;5007186;28;20383;-85
2022/06/30 02:41:39;;;;;;;;;;;;;;;;;;5007530;28;20143;-86
2022/06/30 02:44:05;;;;;;;;;;;;;;;;;;5007159;28;19914;-85
2022/06/30 02:46:30;;;;;;;;;;;;;;;;;;5004341;28;20427;-85
2022/06/30 02:48:55;;;;;;;;;;;;;;;;;;5004949;28;19924;-86
2022/06/30 02:51:20;;;;;;;;;;;;;;;;;;5004722;28;19945;-84
2022/06/30 02:53:45;;;;;;;;;;;;;;;;;;5008356;28;20008;-86
2022/06/30 02:56:12;;;;;;;;;;;;;;;;;;5008617;28;19968;-84
2022/06/30 02:58:37;;;;;;;;;;;;;;;;;;5007766;28;19968;-85
2022/06/30 03:01:02;;;;;;;;;;;;;;;;;;5003596;28;19914;-86
2022/06/30 03:03:27;;;;;;;;;;;;;;;;;;5006931;28;20367;-85
2022/06/30 03:05:52;;;;;;;;;;;;;;;;;;5007400;28;19914;-86
2022/06/30 03:08:18;;;;;;;;;;;;;;;;;;4999137;28;20280;-85
2022/06/30 03:10:43;;;;;;;;;;;;;;;;;;5004777;28;19924;-86
2022/06/30 03:13:08;;;;;;;;;;;;;;;;;;4998810;28;20379;-86
2022/06/30 03:15:34;;;;;;;;;;;;;;;;;;5006719;28;19913;-84
2022/06/30 03:17:59;;;;;;;;;;;;;;;;;;5002803;28;20383;-86
2022/06/30 03:20:24;;;;;;;;;;;;;;;;;;5006371;28;19949;-85
2022/06/30 03:22:49;;;;;;;;;;;;;;;;;;5007320;28;19918;-84
2022/06/30 03:25:15;;;;;;;;;;;;;;;;;;5007479;28;20008;-85
2022/06/30 03:27:40;;;;;;;;;;;;;;;;;;4997256;28;20044;-85
2022/06/30 03:30:05;;;;;;;;;;;;;;;;;;5007490;28;19925;-85
2022/06/30 03:32:30;;;;;;;;;;;;;;;;;;5003864;28;20013;-85
2022/06/30 03:34:55;;;;;;;;;;;;;;;;;;5004206;28;19960;-85
2022/06/30 03:37:21;;;;;;;;;;;;;;;;;;5003689;28;19913;-87
2022/06/30 03:39:46;;;;;;;;;;;;;;;;;;4999984;28;19914;-85
2022/06/30 03:42:11;;;;;;;;;;;;;;;;;;5006459;28;19929;-84
2022/06/30 03:44:36;;;;;;;;;;;;;;;;;;5000384;28;19999;-87
2022/06/30 03:47:01;;;;;;;;;;;;;;;;;;5004306;28;19925;-85
2022/06/30 03:49:27;;;;;;;;;;;;;;;;;;5003029;28;19917;-85
2022/06/30 03:51:52;;;;;;;;;;;;;;;;;;5004443;28;19936;-85
2022/06/30 03:54:19;;;;;;;;;;;;;;;;;;5006639;28;19979;-86
2022/06/30 03:56:44;;;;;;;;;;;;;;;;;;5006953;28;19917;-86
2022/06/30 03:59:09;;;;;;;;;;;;;;;;;;4997314;28;19913;-84
2022/06/30 04:01:34;;;;;;;;;;;;;;;;;;5001035;28;19988;-85
2022/06/30 04:03:59;;;;;;;;;;;;;;;;;;5003246;28;19913;-84
2022/06/30 04:06:25;;;;;;;;;;;;;;;;;;5007968;28;20371;-85
2022/06/30 04:08:50;;;;;;;;;;;;;;;;;;5001698;28;19968;-86
2022/06/30 04:11:15;;;;;;;;;;;;;;;;;;5004079;28;19914;-85
2022/06/30 04:13:40;;;;;;;;;;;;;;;;;;5001245;28;20303;-85
2022/06/30 04:16:05;;;;;;;;;;;;;;;;;;5001605;28;19917;-85
2022/06/30 04:18:30;;;;;;;;;;;;;;;;;;5003216;28;20004;-84
2022/06/30 04:20:56;;;;;;;;;;;;;;;;;;5007079;28;20318;-85
2022/06/30 04:23:21;;;;;;;;;;;;;;;;;;5002991;28;19941;-85
2022/06/30 04:25:46;;;;;;;;;;;;;;;;;;5008140;28;19933;-84
2022/06/30 04:28:11;;;;;;;;;;;;;;;;;;5000699;28;20009;-85
2022/06/30 04:33:20;;;;;;;;;;;;;;;;;;5004182;28;19935;-86
2022/06/30 04:35:45;;;;;;;;;;;;;;;;;;5001078;28;19910;-85
2022/06/30 04:38:10;;;;;;;;;;;;;;;;;;5007339;28;19913;-85
2022/06/30 04:43:19;;;;;;;;;;;;;;;;;;5007381;28;20035;-84
2022/06/30 04:45:44;;;;;;;;;;;;;;;;;;5001505;28;19918;-83
2022/06/30 04:48:11;;;;;;;;;;;;;;;;;;5006735;28;19921;-84
2022/06/30 04:50:36;;;;;;;;;;;;;;;;;;5001316;28;19976;-84
2022/06/30 04:53:01;;;;;;;;;;;;;;;;;;5008241;28;19956;-84
2022/06/30 04:55:26;;;;;;;;;;;;;;;;;;5002887;28;19913;-85
2022/06/30 04:57:52;;;;;;;;;;;;;;;;;;5006518;28;19921;-83
2022/06/30 05:00:17;;;;;;;;;;;;;;;;;;5001915;28;20358;-85
2022/06/30 05:02:42;;;;;;;;;;;;;;;;;;5004373;28;19913;-85
2022/06/30 05:05:07;;;;;;;;;;;;;;;;;;5002922;28;19918;-84
2022/06/30 05:07:32;;;;;;;;;;;;;;;;;;5008903;28;20192;-85
2022/06/30 05:09:57;;;;;;;;;;;;;;;;;;5003103;28;20195;-86
2022/06/30 05:12:23;;;;;;;;;;;;;;;;;;5005182;28;20304;-84
2022/06/30 05:14:48;;;;;;;;;;;;;;;;;;5004256;28;19960;-86
2022/06/30 05:17:13;;;;;;;;;;;;;;;;;;5000458;28;20052;-84
2022/06/30 05:19:38;;;;;;;;;;;;;;;;;;5007205;28;19913;-86
2022/06/30 05:22:03;;;;;;;;;;;;;;;;;;4998024;28;19921;-87
2022/06/30 05:27:12;;;;;;;;;;;;;;;;;;5015861;28;19920;-84
2022/06/30 05:29:38;;;;;;;;;;;;;;;;;;5008188;28;20154;-86
2022/06/30 05:32:03;;;;;;;;;;;;;;;;;;5001707;28;20013;-84
2022/06/30 05:34:28;;;;;;;;;;;;;;;;;;5003108;28;19979;-86
2022/06/30 05:36:53;;;;;;;;;;;;;;;;;;5001223;28;19943;-87
2022/06/30 05:39:18;;;;;;;;;;;;;;;;;;4995993;28;19918;-84
2022/06/30 05:41:44;;;;;;;;;;;;;;;;;;5004159;28;19924;-84
2022/06/30 05:44:09;;;;;;;;;;;;;;;;;;5001344;28;19921;-85
2022/06/30 05:46:36;;;;;;;;;;;;;;;;;;4999615;28;19952;-84
2022/06/30 05:49:01;;;;;;;;;;;;;;;;;;5000289;28;19932;-86
2022/06/30 05:51:26;;;;;;;;;;;;;;;;;;5005367;28;19917;-85
2022/06/30 05:53:51;;;;;;;;;;;;;;;;;;5001053;28;19957;-84
2022/06/30 05:56:16;;;;;;;;;;;;;;;;;;5001963;28;19914;-86
2022/06/30 05:58:42;;;;;;;;;;;;;;;;;;5003888;28;20000;-84
2022/06/30 06:01:07;;;;;;;;;;;;;;;;;;5006699;28;19917;-86
2022/06/30 06:03:32;;;;;;;;;;;;;;;;;;5005951;28;20490;-84
2022/06/30 06:05:57;;;;;;;;;;;;;;;;;;5006474;28;19924;-86
2022/06/30 06:08:22;;;;;;;;;;;;;;;;;;5005612;28;20011;-86
2022/06/30 06:10:48;;;;;;;;;;;;;;;;;;5006259;28;19918;-85
2022/06/30 06:13:14;;;;;;;;;;;;;;;;;;5004361;28;19917;-85
2022/06/30 06:15:39;;;;;;;;;;;;;;;;;;5003485;28;20016;-85
2022/06/30 06:18:05;;;;;;;;;;;;;;;;;;5008251;28;19953;-86
2022/06/30 06:20:30;;;;;;;;;;;;;;;;;;5003329;28;20268;-86
2022/06/30 06:22:55;;;;;;;;;;;;;;;;;;5004896;28;19920;-85
2022/06/30 06:25:20;;;;;;;;;;;;;;;;;;5001895;28;19928;-85
2022/06/30 06:30:29;;;;;;;;;;;;;;;;;;5003686;28;19933;-85
2022/06/30 06:32:55;;;;;;;;;;;;;;;;;;5007487;28;19917;-85
2022/06/30 06:35:20;;;;;;;;;;;;;;;;;;5006729;28;19925;-85
2022/06/30 06:37:45;;;;;;;;;;;;;;;;;;5006734;28;19914;-84
2022/06/30 06:40:10;;;;;;;;;;;;;;;;;;5001994;28;19921;-84
2022/06/30 06:42:35;;;;;;;;;;;;;;;;;;5001783;28;20463;-85
2022/06/30 06:45:01;;;;;;;;;;;;;;;;;;5004699;28;20008;-86
2022/06/30 06:47:26;;;;;;;;;;;;;;;;;;5006689;28;19913;-86
2022/06/30 06:49:51;;;;;;;;;;;;;;;;;;5014212;23;19924;-86
2022/06/30 06:52:16;;;;;;;;;;;;;;;;;;5001091;28;20085;-85
2022/06/30 06:54:41;;;;;;;;;;;;;;;;;;5005589;28;19914;-85
2022/06/30 06:57:07;;;;;;;;;;;;;;;;;;5004832;28;19914;-85
2022/06/30 06:59:34;;;;;;;;;;;;;;;;;;4998552;28;19917;-85
2022/06/30 07:01:59;;;;;;;;;;;;;;;;;;4984172;28;19914;-85
2022/06/30 07:04:24;;;;;;;;;;;;;;;;;;4977537;28;19929;-85
2022/06/30 07:06:49;;;;;;;;;;;;;;;;;;4986671;28;19910;-85
2022/06/30 07:09:14;;;;;;;;;;;;;;;;;;4980552;28;19925;-86
2022/06/30 07:11:40;;;;;;;;;;;;;;;;;;4983518;28;19939;-86
2022/06/30 07:14:05;;;;;;;;;;;;;;;;;;4978297;28;19914;-86
2022/06/30 07:16:31;;;;;;;;;;;;;;;;;;4981706;28;20894;-85
2022/06/30 07:18:56;;;;;;;;;;;;;;;;;;4982326;28;19917;-85
2022/06/30 07:21:21;;;;;;;;;;;;;;;;;;4981077;28;19913;-85
2022/06/30 07:23:46;;;;;;;;;;;;;;;;;;4980237;28;20071;-85
2022/06/30 07:26:12;;;;;;;;;;;;;;;;;;4984976;28;20317;-86
2022/06/30 07:28:37;;;;;;;;;;;;;;;;;;4980174;28;19969;-86
2022/06/30 07:31:02;;;;;;;;;;;;;;;;;;4980019;28;19932;-86
2022/06/30 07:33:27;;;;;;;;;;;;;;;;;;4981229;28;19924;-86
2022/06/30 07:35:52;;;;;;;;;;;;;;;;;;4984832;28;19941;-86
2022/06/30 07:38:17;;;;;;;;;;;;;;;;;;4978360;28;19925;-85
2022/06/30 07:40:43;;;;;;;;;;;;;;;;;;4979702;28;20291;-86
2022/06/30 07:43:08;;;;;;;;;;;;;;;;;;4976802;28;19921;-85
2022/06/30 07:45:33;;;;;;;;;;;;;;;;;;4979572;28;19914;-86
2022/06/30 07:47:58;;;;;;;;;;;;;;;;;;4982938;28;20295;-86
2022/06/30 07:50:24;;;;;;;;;;;;;;;;;;4980258;28;20012;-85
2022/06/30 07:52:49;;;;;;;;;;;;;;;;;;4987830;28;19961;-85
2022/06/30 07:55:14;;;;;;;;;;;;;;;;;;4992610;28;19959;-85
2022/06/30 07:57:42;;;;;;;;;;;;;;;;;;4986549;28;19921;-86
2022/06/30 08:00:07;;;;;;;;;;;;;;;;;;4976974;28;19918;-86
2022/06/30 08:02:32;;;;;;;;;;;;;;;;;;4978127;28;19914;-86
2022/06/30 08:04:58;;;;;;;;;;;;;;;;;;4981405;28;20306;-86
2022/06/30 08:07:23;;;;;;;;;;;;;;;;;;4978596;28;19941;-85
2022/06/30 08:09:48;;;;;;;;;;;;;;;;;;4980863;28;20029;-85
2022/06/30 08:12:13;;;;;;;;;;;;;;;;;;4981263;28;19941;-86
2022/06/30 08:14:38;;;;;;;;;;;;;;;;;;4983923;28;20000;-85
2022/06/30 08:17:03;;;;;;;;;;;;;;;;;;4980835;28;19918;-85
2022/06/30 08:19:31;;;;;;;;;;;;;;;;;;4983198;28;20327;-85
2022/06/30 08:21:56;;;;;;;;;;;;;;;;;;4980271;28;20364;-86
2022/06/30 08:24:34;;;;;;;;;;;;;;;;;;4979927;28;19914;-85
2022/06/30 08:27:02;;;;;;;;;;;;;;;;;;4987607;28;20371;-84
2022/06/30 08:29:37;;;;;;;;;;;;;;;;;;;;;
2022/06/30 08:32:07;;;;;;;;;;;;;;;;;;4984406;28;19921;-84
2022/06/30 08:34:32;;;;;;;;;;;;;;;;;;4980819;28;19917;-84
2022/06/30 08:36:57;;;;;;;;;;;;;;;;;;4980862;28;19914;-85
2022/06/30 08:42:06;;;;;;;;;;;;;;;;;;4980284;28;19921;-84
2022/06/30 08:44:31;;;;;;;;;;;;;;;;;;4979400;28;19914;-85
2022/06/30 08:46:56;;;;;;;;;;;;;;;;;;4980911;28;19921;-84
2022/06/30 08:49:22;;;;;;;;;;;;;;;;;;4981001;28;20430;-84
2022/06/30 08:51:47;;;;;;;;;;;;;;;;;;4981624;28;19922;-84
2022/06/30 08:54:12;;;;;;;;;;;;;;;;;;4980378;28;19921;-84
2022/06/30 08:56:37;;;;;;;;;;;;;;;;;;4982649;28;20268;-84
2022/06/30 08:59:02;;;;;;;;;;;;;;;;;;4982881;28;19914;-84
2022/06/30 09:01:27;;;;;;;;;;;;;;;;;;4982930;28;19913;-85
2022/06/30 09:03:53;;;;;;;;;;;;;;;;;;4981872;28;20153;-84
2022/06/30 09:06:18;;;;;;;;;;;;;;;;;;4984327;28;19957;-84
2022/06/30 09:08:43;;;;;;;;;;;;;;;;;;4983490;28;19914;-85
2022/06/30 09:11:08;;;;;;;;;;;;;;;;;;4977886;28;19976;-85
2022/06/30 09:13:33;;;;;;;;;;;;;;;;;;4977380;28;20001;-84
2022/06/30 09:15:59;;;;;;;;;;;;;;;;;;4980459;28;19925;-84
2022/06/30 09:18:24;;;;;;;;;;;;;;;;;;4978298;28;20334;-85
2022/06/30 09:20:50;;;;;;;;;;;;;;;;;;4977772;28;20287;-84
2022/06/30 09:23:17;;;;;;;;;;;;;;;;;;4978084;28;19976;-85
2022/06/30 09:25:42;;;;;;;;;;;;;;;;;;4982879;28;19921;-85
2022/06/30 09:28:07;;;;;;;;;;;;;;;;;;4984996;28;20368;-84
2022/06/30 09:30:32;;;;;;;;;;;;;;;;;;4985415;28;20068;-85
2022/06/30 09:33:00;;;;;;;;;;;;;;;;;;4983798;28;19926;-85
2022/06/30 09:35:25;;;;;;;;;;;;;;;;;;4989020;28;20008;-85
2022/06/30 09:37:50;;;;;;;;;;;;;;;;;;4987261;28;19988;-85
2022/06/30 09:40:15;;;;;;;;;;;;;;;;;;4987980;28;19918;-86
2022/06/30 09:42:41;;;;;;;;;;;;;;;;;;4978940;28;20976;-85
2022/06/30 09:45:06;;;;;;;;;;;;;;;;;;4980840;28;20398;-85
2022/06/30 09:47:31;;;;;;;;;;;;;;;;;;4980139;28;20916;-85
2022/06/30 09:49:56;;;;;;;;;;;;;;;;;;4983332;28;20232;-86
2022/06/30 09:52:21;;;;;;;;;;;;;;;;;;4983453;28;19922;-86
2022/06/30 09:54:47;;;;;;;;;;;;;;;;;;4985698;28;20056;-86
2022/06/30 09:57:12;;;;;;;;;;;;;;;;;;4986629;28;20004;-85
2022/06/30 09:59:37;;;;;;;;;;;;;;;;;;4984202;28;19921;-86
2022/06/30 10:02:06;;;;;;;;;;;;;;;;;;4983837;28;20004;-86
2022/06/30 10:04:31;;;;;;;;;;;;;;;;;;4982516;28;20390;-86
2022/06/30 10:06:56;;;;;;;;;;;;;;;;;;4985261;28;19917;-86
2022/06/30 10:09:21;;;;;;;;;;;;;;;;;;4987235;28;19933;-86
2022/06/30 10:11:46;;;;;;;;;;;;;;;;;;4979365;28;20392;-86
2022/06/30 10:14:12;;;;;;;;;;;;;;;;;;4983400;28;20016;-86
2022/06/30 10:16:37;;;;;;;;;;;;;;;;;;4981130;28;19965;-85
2022/06/30 10:19:02;;;;;;;;;;;;;;;;;;4980843;28;19949;-85
2022/06/30 10:21:27;;;;;;;;;;;;;;;;;;4984723;28;19918;-85
2022/06/30 10:23:52;;;;;;;;;;;;;;;;;;4979710;28;19941;-86
2022/06/30 10:29:02;;;;;;;;;;;;;;;;;;4986645;28;19976;-86
2022/06/30 10:31:27;;;;;;;;;;;;;;;;;;4984435;28;19918;-86
2022/06/30 10:33:52;;;;;;;;;;;;;;;;;;4980767;28;19913;-85
2022/06/30 10:36:20;;;;;;;;;;;;;;;;;;4980869;28;19922;-86
2022/06/30 10:38:45;;;;;;;;;;;;;;;;;;4985935;28;19910;-86
2022/06/30 10:41:11;;;;;;;;;;;;;;;;;;4982939;28;19949;-86
2022/06/30 10:43:36;;;;;;;;;;;;;;;;;;4983297;28;19922;-85
2022/06/30 10:46:01;;;;;;;;;;;;;;;;;;4982655;28;19980;-85
2022/06/30 10:48:28;;;;;;;;;;;;;;;;;;4980372;28;19918;-85
2022/06/30 10:50:54;;;;;;;;;;;;;;;;;;4983575;28;19918;-85
2022/06/30 10:53:19;;;;;;;;;;;;;;;;;;4981374;28;19917;-85
2022/06/30 10:55:44;;;;;;;;;;;;;;;;;;4979617;28;19922;-85
2022/06/30 10:58:09;;;;;;;;;;;;;;;;;;4979617;28;19922;-86
2022/06/30 11:00:34;;;;;;;;;;;;;;;;;;4982870;28;20291;-85
2022/06/30 11:03:00;;;;;;;;;;;;;;;;;;4978782;28;20029;-85
2022/06/30 11:05:25;;;;;;;;;;;;;;;;;;4979960;28;19929;-85
2022/06/30 11:07:50;;;;;;;;;;;;;;;;;;4978919;28;20003;-85
2022/06/30 11:10:15;;;;;;;;;;;;;;;;;;4979218;28;19930;-85
2022/06/30 11:12:41;;;;;;;;;;;;;;;;;;4982941;28;19924;-85
2022/06/30 11:15:06;;;;;;;;;;;;;;;;;;4980713;28;20189;-85
2022/06/30 11:17:31;;;;;;;;;;;;;;;;;;4974914;28;19914;-85
2022/06/30 11:19:56;;;;;;;;;;;;;;;;;;4979953;28;20351;-85
2022/06/30 11:22:21;;;;;;;;;;;;;;;;;;4981167;28;19957;-85
2022/06/30 11:24:46;;;;;;;;;;;;;;;;;;4978050;28;19918;-85
2022/06/30 11:27:18;;;;;;;;;;;;;;;;;;4980484;28;20387;-85
2022/06/30 11:29:43;;;;;;;;;;;;;;;;;;4980100;28;19926;-85
2022/06/30 11:32:08;;;;;;;;;;;;;;;;;;4978440;28;19929;-85
2022/06/30 11:34:37;;;;;;;;;;;;;;;;;;4979839;28;19918;-85
2022/06/30 11:37:02;;;;;;;;;;;;;;;;;;4982624;28;20306;-85
2022/06/30 11:39:28;;;;;;;;;;;;;;;;;;4982198;28;19918;-85
2022/06/30 11:41:56;;;;;;;;;;;;;;;;;;4978488;28;19933;-85
2022/06/30 11:44:22;;;;;;;;;;;;;;;;;;4973666;28;20496;-85
2022/06/30 11:46:47;;;;;;;;;;;;;;;;;;4978834;28;19926;-85
2022/06/30 11:49:12;;;;;;;;;;;;;;;;;;4980156;28;20079;-85
2022/06/30 11:51:37;;;;;;;;;;;;;;;;;;4980230;28;19932;-85
2022/06/30 11:54:02;;;;;;;;;;;;;;;;;;4975622;28;19972;-85
2022/06/30 11:56:27;;;;;;;;;;;;;;;;;;4983497;28;19922;-85
2022/06/30 11:58:53;;;;;;;;;;;;;;;;;;4979142;28;19914;-86
2022/06/30 12:01:18;;;;;;;;;;;;;;;;;;4977696;28;20094;-85
2022/06/30 12:03:43;;;;;;;;;;;;;;;;;;4979625;28;19929;-86
2022/06/30 12:06:16;;;;;;;;;;;;;;;;;;4974648;28;20390;-86
2022/06/30 12:08:46;;;;;;;;;;;;;;;;;;4984457;28;20264;-86
2022/06/30 12:11:11;;;;;;;;;;;;;;;;;;4980378;28;19926;-86
2022/06/30 12:13:37;;;;;;;;;;;;;;;;;;4981687;28;20435;-86
2022/06/30 12:16:02;;;;;;;;;;;;;;;;;;4977734;28;19914;-86
2022/06/30 12:18:27;;;;;;;;;;;;;;;;;;4974696;28;19928;-86
2022/06/30 12:20:52;;;;;;;;;;;;;;;;;;4980100;28;20445;-86
2022/06/30 12:23:17;;;;;;;;;;;;;;;;;;4984010;28;19918;-86
2022/06/30 12:25:43;;;;;;;;;;;;;;;;;;4977569;28;19918;-86
2022/06/30 12:28:08;;;;;;;;;;;;;;;;;;4984171;28;19925;-86
2022/06/30 12:30:33;;;;;;;;;;;;;;;;;;4977852;28;20302;-87
2022/06/30 12:32:58;;;;;;;;;;;;;;;;;;4978242;28;19926;-88
2022/06/30 12:35:23;;;;;;;;;;;;;;;;;;4977948;28;19917;-86
2022/06/30 12:37:49;;;;;;;;;;;;;;;;;;4980710;28;19988;-87
2022/06/30 12:40:14;;;;;;;;;;;;;;;;;;4974615;28;19918;-87
2022/06/30 12:42:39;;;;;;;;;;;;;;;;;;4980024;28;19943;-86
2022/06/30 12:45:05;;;;;;;;;;;;;;;;;;4975957;28;19914;-87
2022/06/30 12:47:30;;;;;;;;;;;;;;;;;;4979123;28;20569;-86
2022/06/30 12:49:55;;;;;;;;;;;;;;;;;;4977497;28;19922;-86
2022/06/30 12:52:21;;;;;;;;;;;;;;;;;;4979270;28;19984;-87
2022/06/30 12:54:46;;;;;;;;;;;;;;;;;;4982865;28;20290;-86
2022/06/30 12:57:11;;;;;;;;;;;;;;;;;;4978565;28;19925;-86
2022/06/30 12:59:36;;;;;;;;;;;;;;;;;;4981400;28;19917;-86
2022/06/30 13:02:04;;;;;;;;;;;;;;;;;;4987948;28;19914;-86
2022/06/30 13:04:29;;;;;;;;;;;;;;;;;;4985579;28;19928;-86
2022/06/30 13:06:54;;;;;;;;;;;;;;;;;;4984684;28;20299;-86
2022/06/30 13:09:20;;;;;;;;;;;;;;;;;;4985001;28;19933;-85
2022/06/30 13:11:46;;;;;;;;;;;;;;;;;;4982693;28;19976;-85
2022/06/30 13:14:12;;;;;;;;;;;;;;;;;;4979623;28;19928;-85
2022/06/30 13:16:37;;;;;;;;;;;;;;;;;;4981250;28;19922;-86
2022/06/30 13:19:04;;;;;;;;;;;;;;;;;;4977946;28;19984;-86
2022/06/30 13:21:29;;;;;;;;;;;;;;;;;;4977694;28;19926;-86
2022/06/30 13:23:54;;;;;;;;;;;;;;;;;;4981766;28;19963;-85
2022/06/30 13:26:19;;;;;;;;;;;;;;;;;;4981907;28;19945;-85
2022/06/30 13:28:45;;;;;;;;;;;;;;;;;;4983172;28;19952;-86
2022/06/30 13:31:10;;;;;;;;;;;;;;;;;;4979069;28;19990;-86
2022/06/30 13:33:35;;;;;;;;;;;;;;;;;;4978200;28;19948;-85
2022/06/30 13:36:01;;;;;;;;;;;;;;;;;;4980838;28;20387;-86
2022/06/30 13:38:26;;;;;;;;;;;;;;;;;;4981586;28;19918;-85
2022/06/30 13:40:51;;;;;;;;;;;;;;;;;;4983470;28;20040;-85
2022/06/30 13:43:16;;;;;;;;;;;;;;;;;;4983487;28;20360;-85
2022/06/30 13:45:41;;;;;;;;;;;;;;;;;;4982858;28;19952;-85
2022/06/30 13:48:07;;;;;;;;;;;;;;;;;;4984046;28;19921;-85
2022/06/30 13:50:32;;;;;;;;;;;;;;;;;;4980220;28;20004;-86
2022/06/30 13:52:57;;;;;;;;;;;;;;;;;;4978997;28;19945;-85
2022/06/30 13:55:22;;;;;;;;;;;;;;;;;;4981076;28;19961;-85
2022/06/30 13:57:47;;;;;;;;;;;;;;;;;;4981112;28;20284;-85
2022/06/30 14:00:12;;;;;;;;;;;;;;;;;;4979166;28;19918;-85
2022/06/30 14:02:38;;;;;;;;;;;;;;;;;;4981872;28;19933;-85
2022/06/30 14:05:03;;;;;;;;;;;;;;;;;;4982165;28;19917;-85
2022/06/30 14:07:28;;;;;;;;;;;;;;;;;;4982334;28;20322;-86
2022/06/30 14:09:53;;;;;;;;;;;;;;;;;;4978614;28;19933;-85
2022/06/30 14:12:18;;;;;;;;;;;;;;;;;;4976367;28;20348;-85
2022/06/30 14:14:44;;;;;;;;;;;;;;;;;;4978555;28;19913;-86
2022/06/30 14:17:09;;;;;;;;;;;;;;;;;;4975883;28;20179;-85
2022/06/30 14:19:34;;;;;;;;;;;;;;;;;;4981135;28;19929;-85
2022/06/30 14:21:59;;;;;;;;;;;;;;;;;;4973814;28;19922;-85
2022/06/30 14:24:25;;;;;;;;;;;;;;;;;;4982495;28;19914;-84
2022/06/30 14:26:50;;;;;;;;;;;;;;;;;;4984389;28;20008;-84
2022/06/30 14:29:15;;;;;;;;;;;;;;;;;;4987145;28;19965;-83
2022/06/30 14:31:40;;;;;;;;;;;;;;;;;;4985339;28;19952;-85
2022/06/30 14:34:05;;;;;;;;;;;;;;;;;;4987973;28;20423;-83
2022/06/30 14:36:33;;;;;;;;;;;;;;;;;;4985591;28;19925;-83
2022/06/30 14:38:58;;;;;;;;;;;;;;;;;;4986421;28;20506;-84
2022/06/30 14:44:11;;;;;;;;;;;;;;;;;;4984714;28;19981;-83
2022/06/30 14:46:43;;;;;;;;;;;;;;;;;;4986447;28;19913;-83
2022/06/30 14:49:08;;;;;;;;;;;;;;;;;;4981944;28;19925;-83
2022/06/30 14:57:22;;;;;;;;;;;;;;;;;;4986734;28;19961;-83
2022/06/30 14:59:57;;;;;;;;;;;;;;;;;;4990892;28;19976;-83
2022/06/30 15:02:22;;;;;;;;;;;;;;;;;;4981298;28;19964;-83
2022/06/30 15:10:41;;;;;;;;;;;;;;;;;;4980519;28;19918;-82
2022/06/30 15:13:22;;;;;;;;;;;;;;;;;;;;;
2022/06/30 15:24:15;;;;;;;;;;;;;;;;;;;;;
2022/06/30 15:30:02;;;;;;;;;;;;;;;;;;;;;
2022/06/30 15:35:42;;;;;;;;;;;;;;;;;;5000141;28;19913;-83
2022/06/30 15:41:00;;;;;;;;;;;;;;;;;;4999225;28;19965;-84
2022/06/30 15:43:54;;;;;;;;;;;;;;;;;;5001057;28;19984;-81
2022/06/30 15:46:22;;;;;;;;;;;;;;;;;;4999578;28;19964;-80
2022/06/30 15:48:52;;;;;;;;;;;;;;;;;;4994053;28;19914;-80
2022/06/30 15:52:02;;;;;;;;;;;;;;;;;;4964563;28;21275;-82
2022/06/30 15:54:37;;;;;;;;;;;;;;;;;;;;;
2022/06/30 15:59:51;;;;;;;;;;;;;;;;;;4973227;28;20641;-83
2022/06/30 16:02:25;;;;;;;;;;;;;;;;;;4980923;28;19968;-83
2022/06/30 16:10:42;;;;;;;;;;;;;;;;;;4978858;28;20380;-84
2022/06/30 16:13:09;;;;;;;;;;;;;;;;;;4989434;28;19913;-81
2022/06/30 16:15:37;;;;;;;;;;;;;;;;;;4988202;28;19920;-83
2022/06/30 16:18:03;;;;;;;;;;;;;;;;;;4978968;28;19924;-84
2022/06/30 16:20:28;;;;;;;;;;;;;;;;;;4982953;28;20379;-82
2022/06/30 16:22:53;;;;;;;;;;;;;;;;;;4976154;28;19964;-81
2022/06/30 16:25:18;;;;;;;;;;;;;;;;;;4985073;28;19925;-82
2022/06/30 16:27:43;;;;;;;;;;;;;;;;;;4981561;28;19921;-82
2022/06/30 16:30:12;;;;;;;;;;;;;;;;;;4981948;28;19930;-81
2022/06/30 16:32:38;;;;;;;;;;;;;;;;;;4987352;28;19924;-82
2022/06/30 16:35:03;;;;;;;;;;;;;;;;;;4994385;28;20247;-82
2022/06/30 16:37:28;;;;;;;;;;;;;;;;;;4989978;28;19918;-81
2022/06/30 16:39:53;;;;;;;;;;;;;;;;;;4992285;28;19913;-84
2022/06/30 16:42:18;;;;;;;;;;;;;;;;;;4991240;28;19918;-82
2022/06/30 16:44:44;;;;;;;;;;;;;;;;;;4991701;28;19968;-82
2022/06/30 16:47:14;;;;;;;;;;;;;;;;;;4987695;28;19922;-83
2022/06/30 16:49:40;;;;;;;;;;;;;;;;;;4983817;28;20105;-84
2022/06/30 16:52:05;;;;;;;;;;;;;;;;;;4980410;28;19924;-83
2022/06/30 16:54:30;;;;;;;;;;;;;;;;;;4978867;28;19930;-83
2022/06/30 16:56:57;;;;;;;;;;;;;;;;;;4988012;28;20371;-83
2022/06/30 16:59:22;;;;;;;;;;;;;;;;;;4982661;28;19914;-84
2022/06/30 17:01:47;;;;;;;;;;;;;;;;;;4980488;28;19922;-81
2022/06/30 17:04:12;;;;;;;;;;;;;;;;;;4989646;28;20299;-82
2022/06/30 17:06:38;;;;;;;;;;;;;;;;;;4985702;28;20021;-83
2022/06/30 17:09:03;;;;;;;;;;;;;;;;;;4989760;28;21024;-82
2022/06/30 17:11:28;;;;;;;;;;;;;;;;;;4988709;28;19921;-82
2022/06/30 17:13:53;;;;;;;;;;;;;;;;;;4988696;28;19976;-82
2022/06/30 17:16:19;;;;;;;;;;;;;;;;;;4986506;28;19957;-82
2022/06/30 17:18:44;;;;;;;;;;;;;;;;;;4987584;28;20376;-82
2022/06/30 17:21:09;;;;;;;;;;;;;;;;;;4986142;28;19921;-82
2022/06/30 17:23:35;;;;;;;;;;;;;;;;;;4988934;28;19921;-79
2022/06/30 17:26:00;;;;;;;;;;;;;;;;;;4988746;28;20379;-79
2022/06/30 17:28:25;;;;;;;;;;;;;;;;;;4986668;28;20414;-80
2022/06/30 17:30:50;;;;;;;;;;;;;;;;;;4989682;28;19928;-79
2022/06/30 17:33:15;;;;;;;;;;;;;;;;;;4986805;28;19972;-81
2022/06/30 17:35:41;;;;;;;;;;;;;;;;;;4986582;28;20368;-82
2022/06/30 17:38:06;;;;;;;;;;;;;;;;;;4989324;28;19921;-83
2022/06/30 17:40:31;;;;;;;;;;;;;;;;;;4983093;28;19957;-84